KSSF/SSF METAR and TAF weather

Enter ICAO airport designator
Station Type Date Time Source
KSSF METAR 2020/07/11 03:53 UTC NOAA

KSSF 110353Z AUTO 15011G17KT 10SM CLR 29/22 A2999 RMK AO2 SLP142 T02890222 $


Station Type Date Time Source
KSSF Decoded METAR 2020/07/11 03:53 UTC NOAA

SAN ANTONIO STINSON MUNI, TX, United States (KSSF) 29-20N 098-28W 176M
Jul 10, 2020 - 11:53 PM EDT / 2020.07.11 0353 UTC
Wind: from the SSE (150 degrees) at 13 MPH (11 KT) gusting to 20 MPH (17 KT):0
Visibility: 10 mile(s):0
Sky conditions: clear
Temperature: 84.0 F (28.9 C)
Dew Point: 72.0 F (22.2 C)
Relative Humidity: 67%
Pressure (altimeter): 29.99 in. Hg (1015 hPa)
ob: KSSF 110353Z AUTO 15011G17KT 10SM CLR 29/22 A2999 RMK AO2 SLP142 T02890222
cycle: 4

Station Type Date Time Source
KSSF TAF 2020/07/10 18:24 UTC NOAA

TAF KSSF 101721Z 1018/1118 15008KT P6SM FEW035
FM110900 18005KT P6SM BKN020
FM111400 18006KT P6SM BKN250

Example: see airport list